Time;durP1;ratioP1;P1;durP2;ratioP2;P2;SDS_P1;SDS_P2;PMS_P1;PMS_P2;Temp;Humidity;BMP_temperature;BMP_pressure;BME280_temperature;BME280_humidity;BME280_pressure;Samples;Min_cycle;Max_cycle;Signal;HPM_P1;HPM_P2
2022/08/17 00:01:06;;;;;;;8.98;5.32;;;20.80;99.90;;;;;;5050192;28;20501;-83
2022/08/17 00:03:32;;;;;;;6.10;5.18;;;;;;;;;;5053997;28;20025;-82
2022/08/17 00:06:02;;;;;;;6.53;5.20;;;20.80;99.90;;;;;;5066601;28;20036;-83
2022/08/17 00:08:44;;;;;;;7.27;4.77;;;20.80;99.90;;;;;;5055262;28;20044;-82
2022/08/17 00:11:18;;;;;;;8.57;5.35;;;20.80;99.90;;;;;;5056268;28;20458;-80
2022/08/17 00:13:48;;;;;;;6.03;4.90;;;20.80;99.90;;;;;;5058662;28;20022;-81
2022/08/17 00:16:21;;;;;;;8.02;5.90;;;20.80;99.90;;;;;;5068310;28;20063;-81
2022/08/17 00:18:47;;;;;;;7.63;4.90;;;;;;;;;;5068015;28;20059;-83
2022/08/17 00:21:14;;;;;;;5.85;5.05;;;20.80;99.90;;;;;;5067167;28;20085;-83
2022/08/17 00:23:43;;;;;;;6.65;5.13;;;20.80;99.90;;;;;;5067012;28;20029;-81
2022/08/17 00:26:09;;;;;;;6.40;4.95;;;20.90;99.90;;;;;;5048452;28;20025;-81
2022/08/17 00:28:36;;;;;;;5.90;5.18;;;20.90;99.90;;;;;;5055554;28;20061;-81
2022/08/17 00:31:02;;;;;;;6.32;5.25;;;;;;;;;;5050457;28;20049;-82
2022/08/17 00:33:30;;;;;;;5.63;5.03;;;20.80;99.90;;;;;;5060022;28;20055;-82
2022/08/17 00:35:58;;;;;;;6.70;5.20;;;20.80;99.90;;;;;;5069644;28;20063;-81
2022/08/17 00:38:26;;;;;;;7.95;5.90;;;20.80;99.90;;;;;;5050712;28;20430;-82
2022/08/17 00:41:01;;;;;;;7.97;5.32;;;20.70;99.90;;;;;;5067264;28;20037;-80
2022/08/17 00:43:38;;;;;;;7.05;5.38;;;20.80;99.90;;;;;;5049484;28;20082;-81
2022/08/17 00:46:08;;;;;;;8.40;5.05;;;20.80;99.90;;;;;;5048304;28;20033;-81
2022/08/17 00:48:34;;;;;;;7.45;5.28;;;20.80;99.90;;;;;;5066481;28;20446;-82
2022/08/17 00:51:15;;;;;;;7.00;5.57;;;20.80;99.90;;;;;;5065375;28;20113;-82
2022/08/17 00:53:43;;;;;;;7.72;5.38;;;20.70;99.90;;;;;;5045371;28;20020;-79
2022/08/17 00:56:14;;;;;;;9.57;5.30;;;20.80;99.90;;;;;;5065305;28;20036;-81
2022/08/17 00:58:39;;;;;;;;;;;20.80;99.90;;;;;;5052281;28;20024;-81
2022/08/17 01:01:07;;;;;;;6.57;5.45;;;20.80;99.90;;;;;;5056780;28;19905;-82
2022/08/17 01:03:34;;;;;;;8.23;5.65;;;20.80;99.90;;;;;;5052715;28;20089;-81
2022/08/17 01:06:01;;;;;;;7.20;5.50;;;20.80;99.90;;;;;;5050070;28;20459;-80
2022/08/17 01:08:29;;;;;;;7.95;4.97;;;20.70;99.90;;;;;;5067581;28;20275;-81
2022/08/17 01:11:00;;;;;;;7.03;5.10;;;20.80;99.90;;;;;;5060931;28;20340;-80
2022/08/17 01:13:27;;;;;;;;;;;20.80;99.90;;;;;;5069095;28;20024;-82
2022/08/17 01:16:02;;;;;;;8.43;5.47;;;20.80;99.90;;;;;;5070269;28;19935;-81
2022/08/17 01:18:28;;;;;;;6.25;5.22;;;;;;;;;;5052445;28;20016;-81
2022/08/17 01:21:00;;;;;;;7.22;5.63;;;20.70;99.90;;;;;;5052346;28;20017;-80
2022/08/17 01:23:27;;;;;;;7.47;5.57;;;20.70;99.90;;;;;;5055258;28;20028;-82
2022/08/17 01:26:00;;;;;;;7.55;5.50;;;20.70;99.90;;;;;;5055803;28;20035;-80
2022/08/17 01:28:33;;;;;;;8.13;5.22;;;20.60;99.90;;;;;;5070279;28;20017;-82
2022/08/17 01:31:02;;;;;;;6.72;4.93;;;17.80;99.90;;;;;;5069192;28;20052;-81
2022/08/17 01:33:28;;;;;;;7.57;5.88;;;20.60;99.90;;;;;;5070127;28;20021;-82
2022/08/17 01:35:54;;;;;;;7.68;5.47;;;20.60;99.90;;;;;;5069504;28;20036;-81
2022/08/17 01:38:20;;;;;;;6.18;5.45;;;20.60;99.90;;;;;;5051719;28;20021;-80
2022/08/17 01:40:53;;;;;;;7.75;5.68;;;20.60;99.90;;;;;;5050501;28;20033;-81
2022/08/17 01:43:23;;;;;;;9.18;5.25;;;20.50;99.90;;;;;;5066184;28;20094;-80
2022/08/17 01:45:50;;;;;;;;;;;20.50;99.90;;;;;;5047850;28;20039;-79
2022/08/17 01:48:18;;;;;;;9.18;5.25;;;20.50;99.90;;;;;;5057758;28;19940;-78
2022/08/17 01:50:46;;;;;;;8.10;5.40;;;20.40;99.90;;;;;;5065617;28;20036;-80
2022/08/17 01:53:26;;;;;;;8.68;5.82;;;20.50;99.90;;;;;;5048734;28;20107;-80
2022/08/17 01:55:56;;;;;;;8.82;5.80;;;20.40;99.90;;;;;;5047745;28;20013;-80
2022/08/17 01:58:22;;;;;;;7.82;5.93;;;20.40;99.90;;;;;;5051898;28;20096;-81
2022/08/17 02:00:52;;;;;;;8.82;6.40;;;20.40;99.90;;;;;;5061287;28;20491;-80
2022/08/17 02:03:19;;;;;;;;;;;20.50;99.90;;;;;;5052093;28;20025;-81
2022/08/17 02:05:47;;;;;;;7.78;6.03;;;20.50;99.90;;;;;;5067708;28;19969;-82
2022/08/17 02:08:15;;;;;;;7.25;5.35;;;20.50;99.90;;;;;;5053880;28;20040;-81
2022/08/17 02:10:41;;;;;;;8.25;5.93;;;;;;;;;;5047834;28;20060;-79
2022/08/17 02:13:06;;;;;;;7.10;5.65;;;20.60;99.90;;;;;;5051208;28;20036;-81
2022/08/17 02:15:33;;;;;;;7.45;5.43;;;20.70;99.90;;;;;;5067137;28;20028;-81
2022/08/17 02:18:00;;;;;;;11.13;5.82;;;20.70;99.90;;;;;;5066633;28;20072;-79
2022/08/17 02:20:30;;;;;;;9.32;5.80;;;20.70;99.90;;;;;;5052442;28;20491;-81
2022/08/17 02:22:57;;;;;;;9.10;6.40;;;20.70;99.90;;;;;;5047139;28;20885;-79
2022/08/17 02:25:23;;;;;;;7.75;6.15;;;;;;;;;;5040866;28;20021;-81
2022/08/17 02:27:49;;;;;;;8.65;5.78;;;;;;;;;;5064744;28;20067;-82
2022/08/17 02:30:15;;;;;;;7.43;6.10;;;20.80;99.90;;;;;;5055718;28;20025;-79
2022/08/17 02:32:42;;;;;;;7.47;5.78;;;20.90;99.90;;;;;;5047446;28;20032;-80
2022/08/17 02:35:08;;;;;;;6.45;5.22;;;21.00;99.90;;;;;;5044654;28;20384;-81
2022/08/17 02:37:34;;;;;;;7.10;6.07;;;21.00;99.90;;;;;;5042099;28;20021;-80
2022/08/17 02:40:00;;;;;;;6.18;5.47;;;21.10;99.90;;;;;;5057382;28;20025;-83
2022/08/17 02:42:30;;;;;;;6.63;5.43;;;21.20;99.90;;;;;;5046047;28;20028;-82
2022/08/17 02:44:56;;;;;;;8.60;5.68;;;21.30;99.90;;;;;;5060602;28;20028;-82
2022/08/17 02:47:22;;;;;;;8.65;5.90;;;21.40;99.90;;;;;;5060630;28;20470;-80
2022/08/17 02:49:47;;;;;;;7.60;5.70;;;21.50;99.90;;;;;;5061363;28;20025;-81
2022/08/17 02:52:13;;;;;;;9.57;6.00;;;21.50;99.90;;;;;;5050260;28;20125;-82
2022/08/17 02:54:39;;;;;;;9.70;6.03;;;21.50;99.90;;;;;;5058751;28;20024;-82
2022/08/17 02:57:04;;;;;;;7.53;5.93;;;21.50;99.90;;;;;;5042055;28;20044;-82
2022/08/17 02:59:30;;;;;;;7.13;5.47;;;21.50;99.90;;;;;;5060404;28;20016;-83
2022/08/17 03:01:56;;;;;;;9.00;6.10;;;21.50;99.90;;;;;;5040054;28;20064;-80
2022/08/17 03:04:21;;;;;;;9.00;5.68;;;21.50;99.90;;;;;;5060684;28;20097;-82
2022/08/17 03:06:47;;;;;;;6.47;5.55;;;21.60;99.90;;;;;;5071525;28;20049;-81
2022/08/17 03:09:15;;;;;;;7.72;5.50;;;;;;;;;;5073232;28;20021;-81
2022/08/17 03:11:41;;;;;;;10.20;5.90;;;;;;;;;;5059842;28;20053;-81
2022/08/17 03:14:07;;;;;;;12.10;6.32;;;21.60;99.90;;;;;;5059555;28;20013;-82
2022/08/17 03:16:33;;;;;;;7.82;6.03;;;21.60;99.90;;;;;;5074673;28;20040;-81
2022/08/17 03:18:58;;;;;;;9.32;6.50;;;21.60;99.90;;;;;;5068529;28;20051;-82
2022/08/17 03:21:24;;;;;;;11.52;6.32;;;21.90;99.90;;;;;;5068026;28;20035;-81
2022/08/17 03:23:50;;;;;;;9.52;5.68;;;21.60;99.90;;;;;;5069522;28;20025;-80
2022/08/17 03:26:15;;;;;;;8.20;5.97;;;21.60;99.90;;;;;;5067040;28;20055;-81
2022/08/17 03:28:41;;;;;;;9.93;6.30;;;21.60;99.90;;;;;;5070048;28;20037;-81
2022/08/17 03:31:07;;;;;;;8.80;5.60;;;;;;;;;;5069506;28;20070;-81
2022/08/17 03:33:33;;;;;;;9.57;6.47;;;;;;;;;;5070642;28;20056;-80
2022/08/17 03:35:59;;;;;;;9.73;6.22;;;21.40;99.90;;;;;;5070156;28;20022;-81
2022/08/17 03:38:25;;;;;;;8.68;6.20;;;21.30;99.90;;;;;;5068927;28;20021;-81
2022/08/17 03:40:52;;;;;;;6.22;5.55;;;21.40;99.90;;;;;;5053916;28;20033;-82
2022/08/17 03:43:19;;;;;;;8.93;6.43;;;21.40;99.90;;;;;;5070392;28;20036;-81
2022/08/17 03:57:06;;;;;;;10.60;6.35;;;21.20;99.90;;;;;;5065311;28;20094;-81
2022/08/17 03:59:33;;;;;;;10.82;6.60;;;21.20;99.90;;;;;;5047623;28;20036;-83
2022/08/17 04:02:08;;;;;;;9.48;6.32;;;21.20;99.90;;;;;;5072983;28;20024;-83
2022/08/17 04:04:35;;;;;;;7.53;6.68;;;21.10;99.90;;;;;;5066238;28;20025;-82
2022/08/17 04:07:00;;;;;;;8.93;6.22;;;21.20;99.90;;;;;;5078680;28;20180;-82
2022/08/17 04:09:26;;;;;;;8.20;6.20;;;21.20;99.90;;;;;;5079915;28;20045;-82
2022/08/17 04:11:53;;;;;;;9.77;6.78;;;21.20;99.90;;;;;;5078778;28;20040;-82
2022/08/17 04:14:19;;;;;;;10.63;6.40;;;22.30;99.90;;;;;;5079143;28;20052;-83
2022/08/17 04:16:45;;;;;;;7.97;6.47;;;21.20;99.90;;;;;;5076876;28;20037;-82
2022/08/17 04:19:11;;;;;;;10.98;6.75;;;21.20;99.90;;;;;;5055060;28;20025;-81
2022/08/17 04:21:37;;;;;;;11.45;6.32;;;;;;;;;;5069989;28;20021;-82
2022/08/17 04:24:04;;;;;;;8.18;6.78;;;21.20;99.90;;;;;;5073793;28;20084;-81
2022/08/17 04:26:32;;;;;;;11.18;6.90;;;21.10;99.90;;;;;;5060943;28;20052;-82
2022/08/17 04:28:58;;;;;;;8.43;6.32;;;21.10;99.90;;;;;;5060117;28;20025;-83
2022/08/17 04:31:26;;;;;;;8.07;6.45;;;21.00;99.90;;;;;;5059131;28;20049;-82
2022/08/17 04:33:53;;;;;;;8.15;6.55;;;;;;;;;;5053621;28;20024;-81
2022/08/17 04:36:18;;;;;;;7.00;6.05;;;21.00;99.90;;;;;;5074756;28;20044;-81
2022/08/17 04:38:45;;;;;;;9.60;6.30;;;21.00;99.90;;;;;;5079968;28;20052;-83
2022/08/17 04:43:58;;;;;;;8.57;6.43;;;21.00;99.90;;;;;;5078554;28;20078;-83
2022/08/17 04:46:31;;;;;;;10.05;7.00;;;21.00;99.90;;;;;;5060459;28;20124;-82
2022/08/17 04:48:58;;;;;;;6.82;6.13;;;21.00;99.90;;;;;;5078036;28;20041;-82
2022/08/17 04:51:35;;;;;;;7.47;6.57;;;21.00;99.90;;;;;;5051289;28;20493;-81
2022/08/17 04:54:08;;;;;;;7.60;6.10;;;21.00;99.90;;;;;;5045412;28;20032;-79
2022/08/17 04:56:34;;;;;;;10.00;7.10;;;21.00;99.90;;;;;;5047063;28;20026;-82
2022/08/17 04:59:08;;;;;;;10.10;6.30;;;21.00;99.90;;;;;;5050050;28;20025;-80
2022/08/17 05:01:36;;;;;;;9.85;7.47;;;21.00;99.90;;;;;;5049737;28;20111;-81
2022/08/17 05:04:07;;;;;;;8.73;6.40;;;20.90;99.90;;;;;;5054617;28;20029;-79
2022/08/17 05:06:33;;;;;;;10.35;6.20;;;21.00;99.90;;;;;;5067600;28;20028;-81
2022/08/17 05:08:59;;;;;;;9.63;6.43;;;21.00;99.90;;;;;;5053622;28;20119;-79
2022/08/17 05:11:26;;;;;;;7.55;6.53;;;21.00;99.90;;;;;;5051113;28;20498;-79
2022/08/17 05:13:53;;;;;;;10.90;7.03;;;21.00;99.90;;;;;;5070843;28;20028;-79
2022/08/17 05:16:20;;;;;;;11.68;6.93;;;21.00;99.90;;;;;;5069223;28;20060;-82
2022/08/17 05:18:49;;;;;;;11.88;7.43;;;;;;;;;;5065995;28;20045;-81
2022/08/17 05:21:15;;;;;;;9.98;6.38;;;21.10;99.90;;;;;;5061103;28;20029;-80
2022/08/17 05:23:41;;;;;;;10.82;7.25;;;21.00;99.90;;;;;;5048885;28;20096;-83
2022/08/17 05:26:08;;;;;;;11.45;7.65;;;21.00;99.90;;;;;;5048616;28;20046;-80
2022/08/17 05:28:34;;;;;;;11.32;7.75;;;21.00;99.90;;;;;;5050147;28;20033;-80
2022/08/17 05:31:02;;;;;;;12.50;7.47;;;21.00;99.90;;;;;;5066386;28;20559;-79
2022/08/17 05:33:32;;;;;;;13.27;7.50;;;21.00;99.90;;;;;;5048948;28;20024;-81
2022/08/17 05:35:59;;;;;;;10.80;7.68;;;21.00;99.90;;;;;;5066591;28;20043;-81
2022/08/17 05:38:27;;;;;;;12.82;7.50;;;21.00;99.90;;;;;;5065546;28;20025;-79
2022/08/17 05:40:54;;;;;;;9.63;7.13;;;21.00;99.90;;;;;;5065280;28;20029;-82
2022/08/17 05:43:29;;;;;;;7.75;6.78;;;20.90;99.90;;;;;;5049935;28;20025;-82
2022/08/17 05:46:05;;;;;;;12.70;7.18;;;21.00;99.90;;;;;;5046888;28;20390;-82
2022/08/17 05:48:36;;;;;;;10.23;7.18;;;21.10;99.90;;;;;;5045349;28;20029;-79
2022/08/17 05:51:10;;;;;;;11.18;7.45;;;21.00;99.90;;;;;;5070883;28;20032;-82
2022/08/17 05:53:48;;;;;;;10.27;7.55;;;21.10;99.90;;;;;;5076288;28;20037;-83
2022/08/17 05:56:46;;;;;;;12.52;8.52;;;21.00;99.90;;;;;;5046264;28;20025;-79
2022/08/17 05:59:12;;;;;;;10.55;7.85;;;21.00;99.90;;;;;;5067567;28;20029;-83
2022/08/17 06:01:50;;;;;;;10.23;7.90;;;21.00;99.90;;;;;;5063974;28;20021;-79
2022/08/17 06:04:43;;;;;;;12.88;8.23;;;21.00;99.90;;;;;;5045397;28;20063;-82
2022/08/17 06:07:30;;;;;;;9.52;7.60;;;21.00;99.90;;;;;;5040799;28;20021;-83
2022/08/17 06:10:36;;;;;;;9.57;8.18;;;21.10;99.90;;;;;;5035874;28;20154;-82
2022/08/17 06:13:13;;;;;;;9.60;7.28;;;21.00;99.90;;;;;;5062786;28;20037;-81
2022/08/17 06:15:52;;;;;;;9.98;8.32;;;21.20;99.90;;;;;;5039863;28;20041;-79
2022/08/17 06:18:20;;;;;;;11.68;8.25;;;21.20;99.90;;;;;;5063703;28;20021;-81
2022/08/17 06:20:52;;;;;;;14.98;8.55;;;21.30;99.90;;;;;;5042955;28;20032;-79
2022/08/17 06:23:41;;;;;;;11.65;8.70;;;21.30;99.90;;;;;;5052675;28;20037;-81
2022/08/17 06:26:19;;;;;;;12.00;8.57;;;21.30;99.90;;;;;;5059554;28;20037;-80
2022/08/17 06:29:14;;;;;;;9.07;7.50;;;21.30;99.90;;;;;;5041857;28;20036;-80
2022/08/17 06:31:40;;;;;;;9.15;8.25;;;21.40;99.90;;;;;;5050511;28;20044;-82
2022/08/17 06:34:09;;;;;;;9.15;7.97;;;21.50;99.90;;;;;;5060549;28;20029;-81
2022/08/17 06:36:43;;;;;;;11.23;8.07;;;21.50;99.90;;;;;;5062471;28;20371;-79
2022/08/17 06:39:59;;;;;;;11.40;8.00;;;21.50;99.90;;;;;;5061325;28;20013;-79
2022/08/17 06:42:54;;;;;;;10.32;8.00;;;21.50;99.90;;;;;;4988612;28;20025;-82
2022/08/17 06:45:26;;;;;;;13.00;8.57;;;21.40;99.90;;;;;;4991458;28;20086;-82
2022/08/17 06:48:10;;;;;;;10.95;8.00;;;21.40;99.90;;;;;;5029005;28;20028;-80
2022/08/17 06:50:41;;;;;;;9.73;7.97;;;21.40;99.90;;;;;;5071990;28;20039;-81
2022/08/17 06:53:30;;;;;;;11.13;8.68;;;21.40;99.90;;;;;;5063488;28;20032;-82
2022/08/17 06:56:20;;;;;;;14.77;9.60;;;21.30;99.90;;;;;;5066536;28;20017;-81
2022/08/17 06:58:47;;;;;;;10.48;8.32;;;21.30;99.90;;;;;;5041300;28;20104;-81
2022/08/17 07:01:16;;;;;;;11.93;8.18;;;21.30;99.90;;;;;;5041057;28;20585;-82
2022/08/17 07:03:53;;;;;;;13.98;8.50;;;21.30;99.90;;;;;;5060056;28;20099;-82
2022/08/17 07:06:21;;;;;;;10.88;7.95;;;21.30;99.90;;;;;;5048420;28;20025;-83
2022/08/17 07:09:01;;;;;;;9.95;7.88;;;21.20;99.90;;;;;;5061505;28;20033;-81
2022/08/17 07:11:34;;;;;;;11.55;8.35;;;21.30;99.90;;;;;;5061764;28;20029;-81
2022/08/17 07:14:24;;;;;;;12.60;8.10;;;22.30;99.90;;;;;;5056777;28;20028;-80
2022/08/17 07:16:52;;;;;;;10.68;8.45;;;21.30;99.90;;;;;;5050769;28;20025;-81
2022/08/17 07:19:22;;;;;;;11.80;8.07;;;21.40;99.90;;;;;;5046889;28;20036;-80
2022/08/17 07:22:02;;;;;;;12.83;8.57;;;21.40;99.90;;;;;;5042391;28;20030;-80
2022/08/17 07:24:46;;;;;;;13.30;8.40;;;21.40;99.90;;;;;;5056194;28;20025;-80
2022/08/17 07:27:19;;;;;;;9.75;8.43;;;21.50;99.90;;;;;;5056950;28;20055;-81
2022/08/17 07:29:49;;;;;;;13.77;8.52;;;21.50;99.90;;;;;;5045753;28;20025;-78
2022/08/17 07:32:21;;;;;;;13.88;8.57;;;21.50;99.90;;;;;;5063136;28;20029;-81
2022/08/17 07:35:09;;;;;;;10.52;8.43;;;21.50;99.90;;;;;;5051271;28;20076;-81
2022/08/17 07:37:37;;;;;;;12.05;8.73;;;21.50;99.90;;;;;;5049906;28;20083;-81
2022/08/17 07:40:19;;;;;;;12.88;9.65;;;21.60;99.90;;;;;;5045619;28;20025;-84
2022/08/17 07:43:12;;;;;;;14.63;9.60;;;21.50;99.90;;;;;;5050230;28;20025;-81
2022/08/17 07:48:40;;;;;;;17.40;10.07;;;21.50;99.90;;;;;;5065539;28;20023;-81
2022/08/17 07:51:26;;;;;;;15.55;10.05;;;21.50;99.90;;;;;;5050340;28;20025;-81
2022/08/17 07:54:21;;;;;;;12.25;8.88;;;21.60;99.90;;;;;;5054065;28;20076;-82
2022/08/17 07:57:21;;;;;;;13.48;9.55;;;21.60;99.90;;;;;;5064971;28;20028;-80
2022/08/17 07:59:59;;;;;;;16.35;8.60;;;21.70;99.90;;;;;;5045657;28;20040;-78
2022/08/17 08:02:29;;;;;;;13.55;9.20;;;21.70;99.90;;;;;;5063936;28;20051;-80
2022/08/17 08:05:11;;;;;;;15.73;9.20;;;21.70;99.90;;;;;;5051929;28;20025;-80
2022/08/17 08:07:46;;;;;;;13.85;9.63;;;21.70;99.90;;;;;;5053965;28;20025;-79
2022/08/17 08:10:12;;;;;;;12.90;8.18;;;21.90;99.90;;;;;;5047954;28;20025;-79
2022/08/17 08:12:46;;;;;;;11.43;8.30;;;22.00;99.90;;;;;;5050178;28;20286;-79
2022/08/17 08:15:22;;;;;;;11.02;8.18;;;22.50;99.90;;;;;;5039963;28;20032;-80
2022/08/17 08:18:01;;;;;;;13.60;7.30;;;22.50;99.90;;;;;;5058055;28;20032;-78
2022/08/17 08:21:02;;;;;;;9.32;7.03;;;23.10;99.90;;;;;;5061646;28;20029;-79
2022/08/17 08:24:01;;;;;;;8.68;6.70;;;23.00;99.90;;;;;;5057411;28;20027;-81
2022/08/17 08:26:39;;;;;;;7.65;6.35;;;23.40;99.90;;;;;;5064763;28;20056;-81
2022/08/17 08:29:04;;;;;;;8.18;6.57;;;23.40;99.90;;;;;;5046521;28;20075;-80
2022/08/17 08:32:04;;;;;;;7.45;5.80;;;23.60;99.90;;;;;;5056736;28;20025;-79
2022/08/17 08:34:49;;;;;;;8.82;5.97;;;23.80;99.90;;;;;;5062750;28;20082;-80
2022/08/17 08:37:34;;;;;;;7.55;5.90;;;24.20;99.90;;;;;;5061663;28;20029;-81
2022/08/17 08:40:38;;;;;;;8.88;5.85;;;24.40;99.90;;;;;;5046823;28;20028;-82
2022/08/17 08:43:34;;;;;;;9.45;6.00;;;24.60;99.90;;;;;;5053308;28;20394;-81
2022/08/17 08:46:08;;;;;;;8.82;5.75;;;24.60;99.90;;;;;;5061472;28;20482;-80
2022/08/17 08:48:54;;;;;;;8.23;6.53;;;24.70;99.90;;;;;;5062124;28;20040;-81
2022/08/17 08:51:32;;;;;;;7.93;6.32;;;24.70;99.90;;;;;;5062588;28;20071;-82
2022/08/17 08:54:20;;;;;;;8.18;5.55;;;24.90;99.90;;;;;;5065116;28;20016;-81
2022/08/17 08:56:53;;;;;;;9.27;6.18;;;24.70;99.90;;;;;;5068324;28;20025;-81
2022/08/17 08:59:40;;;;;;;7.32;5.53;;;24.70;99.90;;;;;;5068094;28;20046;-78
2022/08/17 09:02:21;;;;;;;13.68;6.85;;;24.90;99.90;;;;;;5065237;28;20104;-79
2022/08/17 09:04:55;;;;;;;7.63;5.68;;;25.00;99.90;;;;;;5053787;28;20020;-79
2022/08/17 09:07:35;;;;;;;7.95;5.90;;;24.90;99.90;;;;;;5062325;28;20028;-80
2022/08/17 09:10:09;;;;;;;7.72;6.07;;;24.90;99.90;;;;;;5065485;28;20032;-79
2022/08/17 09:12:46;;;;;;;12.13;6.50;;;24.90;99.90;;;;;;5054176;28;20448;-80
2022/08/17 09:15:27;;;;;;;17.60;6.80;;;25.10;99.90;;;;;;5049757;28;20021;-80
2022/08/17 09:18:18;;;;;;;10.30;6.38;;;25.10;99.90;;;;;;5048033;28;20106;-79
2022/08/17 09:21:06;;;;;;;10.23;6.00;;;25.20;99.90;;;;;;5058098;28;20025;-80
2022/08/17 09:23:40;;;;;;;8.48;6.05;;;25.40;99.90;;;;;;5037508;28;20078;-81
2022/08/17 09:26:15;;;;;;;8.23;6.60;;;25.70;99.90;;;;;;5066824;28;20814;-82
2022/08/17 09:28:48;;;;;;;8.48;7.38;;;25.70;99.90;;;;;;5048797;28;20031;-79
2022/08/17 09:31:20;;;;;;;9.48;6.25;;;26.00;99.90;;;;;;5048196;28;20033;-79
2022/08/17 09:33:47;;;;;;;7.30;6.18;;;26.00;99.90;;;;;;5048322;28;20055;-79
2022/08/17 09:36:30;;;;;;;7.00;5.55;;;26.10;99.90;;;;;;5065288;28;20039;-81
2022/08/17 09:39:05;;;;;;;8.55;6.18;;;26.80;99.90;;;;;;5049043;28;20025;-80
2022/08/17 09:41:53;;;;;;;11.25;5.53;;;26.40;99.60;;;;;;5053935;28;20062;-80
2022/08/17 09:44:56;;;;;;;6.20;5.18;;;26.40;99.00;;;;;;5052257;28;20096;-82
2022/08/17 09:47:45;;;;;;;10.35;5.50;;;26.40;98.90;;;;;;5048421;28;20037;-82
2022/08/17 09:50:58;;;;;;;6.95;5.50;;;26.80;98.60;;;;;;5049146;28;20021;-82
2022/08/17 09:53:23;;;;;;;8.60;5.70;;;26.80;98.60;;;;;;4970167;28;20632;-79
2022/08/17 09:55:59;;;;;;;7.05;5.13;;;27.20;97.40;;;;;;4973460;28;20027;-78
2022/08/17 09:58:49;;;;;;;6.53;4.80;;;27.10;97.50;;;;;;5008450;28;20029;-80
2022/08/17 10:01:35;;;;;;;7.18;6.10;;;27.40;97.00;;;;;;5068130;28;20039;-83
2022/08/17 10:04:21;;;;;;;6.05;4.70;;;27.50;96.60;;;;;;5046751;28;20045;-81
2022/08/17 10:07:00;;;;;;;8.30;5.75;;;27.60;95.80;;;;;;5075744;28;20017;-82
2022/08/17 10:09:40;;;;;;;7.63;5.10;;;27.60;95.70;;;;;;5073387;28;20038;-81
2022/08/17 10:12:25;;;;;;;;;;;27.70;94.70;;;;;;5074697;28;20049;-81
2022/08/17 10:15:12;;;;;;;7.03;4.75;;;28.00;93.90;;;;;;5075980;28;19897;-82
2022/08/17 10:17:55;;;;;;;5.40;4.60;;;28.00;94.00;;;;;;5056706;28;20032;-80
2022/08/17 10:20:44;;;;;;;7.82;4.70;;;27.70;94.20;;;;;;5052127;28;20029;-81
2022/08/17 10:26:21;;;;;;;6.07;4.20;;;27.60;93.00;;;;;;5056126;28;20036;-79
2022/08/17 10:28:53;;;;;;;6.00;3.90;;;27.60;93.20;;;;;;5042139;28;20021;-80
2022/08/17 10:31:26;;;;;;;6.70;4.10;;;27.70;92.80;;;;;;5039174;28;20434;-79
2022/08/17 10:34:11;;;;;;;6.30;4.13;;;27.70;92.60;;;;;;5059597;28;20048;-80
2022/08/17 10:37:03;;;;;;;6.95;4.15;;;27.60;92.60;;;;;;5051956;28;20067;-80
2022/08/17 10:39:52;;;;;;;5.43;3.88;;;27.60;92.60;;;;;;5066972;28;20031;-82
2022/08/17 10:42:27;;;;;;;5.75;3.78;;;27.50;92.40;;;;;;5065978;28;20029;-80
2022/08/17 10:45:16;;;;;;;5.32;4.20;;;27.30;92.70;;;;;;5065669;28;20124;-79
2022/08/17 10:48:04;;;;;;;6.65;4.50;;;27.60;92.00;;;;;;5061982;28;20028;-83
2022/08/17 10:50:57;;;;;;;5.20;4.00;;;27.60;92.00;;;;;;5064163;28;20025;-81
2022/08/17 10:53:32;;;;;;;5.32;3.90;;;;;;;;;;5048781;28;20025;-81
2022/08/17 10:56:20;;;;;;;7.18;4.47;;;28.60;90.40;;;;;;5058932;28;20021;-81
2022/08/17 10:58:58;;;;;;;5.53;4.03;;;28.60;90.50;;;;;;5042166;28;20074;-80
2022/08/17 11:01:36;;;;;;;4.78;3.67;;;28.70;90.20;;;;;;5040821;28;20040;-82
2022/08/17 11:04:17;;;;;;;5.35;4.30;;;28.80;88.30;;;;;;5049627;28;20111;-81
2022/08/17 11:07:20;;;;;;;5.38;4.07;;;28.80;88.30;;;;;;5046760;28;20037;-81
2022/08/17 11:10:04;;;;;;;5.63;3.80;;;28.90;88.00;;;;;;4987145;28;20041;-80
2022/08/17 11:12:29;;;;;;;5.85;3.88;;;28.70;87.90;;;;;;5050363;28;20071;-80
2022/08/17 11:15:20;;;;;;;6.25;4.28;;;28.60;87.40;;;;;;5058315;28;20017;-81
2022/08/17 11:18:00;;;;;;;7.03;3.78;;;28.70;88.10;;;;;;5064011;28;20038;-82
2022/08/17 11:21:00;;;;;;;7.57;4.35;;;28.30;87.70;;;;;;5064448;28;20110;-81
2022/08/17 11:23:47;;;;;;;5.72;3.58;;;28.40;88.30;;;;;;5057624;28;20017;-80
2022/08/17 11:26:31;;;;;;;3.97;3.40;;;28.80;85.80;;;;;;5060202;28;20088;-79
2022/08/17 11:29:01;;;;;;;6.07;3.58;;;28.70;86.20;;;;;;5062313;28;20032;-80
2022/08/17 11:31:45;;;;;;;6.00;3.53;;;28.90;86.30;;;;;;5060177;28;20052;-79
2022/08/17 11:34:20;;;;;;;3.95;3.50;;;28.90;85.40;;;;;;5061539;28;20028;-80
2022/08/17 11:37:07;;;;;;;6.75;4.00;;;28.40;85.90;;;;;;5047216;28;20027;-81
2022/08/17 11:39:53;;;;;;;5.78;3.78;;;28.40;86.20;;;;;;5040878;28;20364;-83
2022/08/17 11:42:30;;;;;;;4.72;3.47;;;28.50;85.70;;;;;;5042082;28;20029;-82
2022/08/17 11:45:24;;;;;;;4.38;3.20;;;28.40;84.90;;;;;;5048189;28;20080;-81
2022/08/17 11:53:41;;;;;;;4.82;3.00;;;;;;;;;;5061864;28;20078;-81
2022/08/17 11:56:25;;;;;;;4.72;3.67;;;28.70;81.10;;;;;;5042066;28;20051;-82
2022/08/17 11:58:51;;;;;;;4.20;3.10;;;;;;;;;;5067517;28;20065;-81
2022/08/17 12:01:57;;;;;;;4.18;3.33;;;28.90;80.80;;;;;;5061266;28;20384;-84
2022/08/17 12:04:27;;;;;;;4.65;3.00;;;29.10;80.70;;;;;;5062069;28;20037;-81
2022/08/17 12:07:07;;;;;;;7.88;3.60;;;29.10;80.10;;;;;;5067195;28;20036;-80
2022/08/17 12:09:33;;;;;;;;;;;29.20;81.00;;;;;;5059606;28;20029;-80
2022/08/17 12:12:00;;;;;;;5.72;3.33;;;;;;;;;;5058674;28;19988;-81
2022/08/17 12:14:28;;;;;;;5.55;3.70;;;28.90;80.60;;;;;;5055322;28;20104;-81
2022/08/17 12:17:11;;;;;;;4.17;3.40;;;28.90;81.20;;;;;;5057740;28;20033;-82
2022/08/17 12:19:41;;;;;;;5.97;3.42;;;28.90;81.80;;;;;;5043770;28;20029;-81
2022/08/17 12:22:09;;;;;;;;;;;29.00;82.10;;;;;;5049842;28;20026;-80
2022/08/17 12:25:09;;;;;;;5.60;3.53;;;29.20;81.70;;;;;;5055785;28;19909;-80
2022/08/17 12:27:43;;;;;;;5.40;3.60;;;29.20;80.00;;;;;;5035202;28;20036;-80
2022/08/17 12:30:15;;;;;;;4.93;2.92;;;29.30;80.40;;;;;;5035147;28;20035;-81
2022/08/17 12:32:44;;;;;;;3.65;3.10;;;29.80;78.00;;;;;;5056565;28;20036;-79
2022/08/17 12:35:18;;;;;;;;;;;30.00;76.60;;;;;;5057133;28;20028;-80
2022/08/17 12:37:47;;;;;;;5.72;2.88;;;29.90;76.90;;;;;;5054753;28;19935;-79
2022/08/17 12:40:23;;;;;;;6.18;3.17;;;30.00;76.20;;;;;;5047228;28;20021;-79
2022/08/17 12:43:01;;;;;;;5.43;2.95;;;30.30;75.30;;;;;;5055431;28;20113;-80
2022/08/17 12:45:35;;;;;;;4.03;3.33;;;30.30;74.00;;;;;;5057557;28;20029;-79
2022/08/17 12:48:20;;;;;;;3.65;2.83;;;30.40;74.20;;;;;;5048552;28;20032;-81
2022/08/17 12:50:46;;;;;;;3.70;2.83;;;30.00;72.70;;;;;;5061049;28;20116;-81
2022/08/17 12:53:20;;;;;;;4.18;2.78;;;30.00;73.10;;;;;;5059012;28;20143;-79
2022/08/17 12:55:47;;;;;;;3.78;2.97;;;30.30;71.10;;;;;;5053925;28;20451;-80
2022/08/17 12:58:27;;;;;;;3.33;2.72;;;30.30;71.40;;;;;;5051861;28;20017;-79
2022/08/17 13:01:13;;;;;;;3.28;2.88;;;30.30;72.00;;;;;;5046511;28;20124;-81
2022/08/17 13:03:48;;;;;;;4.10;3.20;;;30.30;71.50;;;;;;5057229;28;20017;-79
2022/08/17 13:06:47;;;;;;;4.03;3.08;;;30.10;71.00;;;;;;5049259;28;20112;-80
2022/08/17 13:09:19;;;;;;;4.18;2.72;;;30.00;71.20;;;;;;5028838;28;20115;-80
2022/08/17 13:11:49;;;;;;;3.45;2.67;;;30.10;72.10;;;;;;5055512;28;20103;-79
2022/08/17 13:14:17;;;;;;;4.88;2.90;;;30.30;71.60;;;;;;5055035;28;20043;-78
2022/08/17 13:16:48;;;;;;;4.35;3.13;;;30.60;71.40;;;;;;5054464;28;20035;-80
2022/08/17 13:19:20;;;;;;;4.72;3.47;;;30.50;71.70;;;;;;5054905;28;20025;-79
2022/08/17 13:21:55;;;;;;;4.25;2.95;;;30.70;71.10;;;;;;5044645;28;20034;-79
2022/08/17 13:24:33;;;;;;;3.60;2.70;;;30.70;69.90;;;;;;5053227;28;20115;-80
2022/08/17 13:27:01;;;;;;;4.45;3.20;;;30.90;69.80;;;;;;5058307;28;20028;-77
2022/08/17 13:29:43;;;;;;;2.88;2.47;;;30.90;68.70;;;;;;5056679;28;20091;-80
2022/08/17 13:32:10;;;;;;;3.22;2.75;;;30.90;69.00;;;;;;5040717;28;20043;-80
2022/08/17 13:34:46;;;;;;;4.65;3.00;;;30.80;68.30;;;;;;5062464;28;20036;-80
2022/08/17 13:37:33;;;;;;;6.60;4.57;;;30.80;68.60;;;;;;5055553;28;20496;-81
2022/08/17 13:40:08;;;;;;;4.68;3.35;;;30.80;68.80;;;;;;5055843;28;20044;-79
2022/08/17 13:42:39;;;;;;;6.47;3.75;;;30.90;66.90;;;;;;5058354;28;20032;-80
2022/08/17 13:45:27;;;;;;;4.30;3.22;;;31.00;66.40;;;;;;5058238;28;20025;-80
2022/08/17 13:48:10;;;;;;;3.40;2.60;;;31.10;66.10;;;;;;5046294;28;20041;-80
2022/08/17 13:50:42;;;;;;;4.68;3.10;;;31.20;66.30;;;;;;5057304;28;20025;-79
2022/08/17 13:53:19;;;;;;;3.72;2.80;;;31.30;66.80;;;;;;5037054;28;20082;-80
2022/08/17 13:55:51;;;;;;;8.50;6.90;;;31.30;66.50;;;;;;5053753;28;20033;-80
2022/08/17 13:58:45;;;;;;;4.43;2.95;;;31.30;66.80;;;;;;5053275;28;20025;-79